Olpe, KS (66865)

3:48 AM CDT on August 20, 2014 (GMT -0500)
Emporia Municipal | Change Station
CLOSE
Current Station
Airport
Location: Emporia,
Elevation: 1207 ft
Nearby Weather Stations

Elev 1207 ft 38.33 °N, 96.19 °W | Updated 55 minutes ago

Clear
Clear
75 °F
Feels Like 75 °F
N
10
Wind Variable Wind from South

Today
High -- | Low -- °F
--% Chance of Precip.
Yesterday
High -- | Low -- °F
Precip. -- in
6:44 AM 8:11 PM
Waning Crescent, 23% visible
Pressure 29.81 in
Visibility 10.0 miles
Clouds Clear
Dew Point 68 °F
Humidity 79%
Rainfall 0.00 in
Snow Depth Not available.
UV 0 out of 12
Pollen 8.50 out of 12
Air Quality Not available.
Flu Activity Not available.
METAR KEMP 200753Z AUTO 18009KT 10SM CLR 24/20 A2985 RMK AO2 SLP095 T02390200

More Conditions Fewer Conditions

Pressure 29.81 in
Visibility 10.0 miles
Clouds Clear
Dew Point 68 °F
Humidity 79%
Rainfall 0.00 in
Snow Depth Not available.
UV 0 out of 12
Pollen 8.50 out of 12
Air Quality Not available.
Flu Activity Not available.
METAR KEMP 200753Z AUTO 18009KT 10SM CLR 24/20 A2985 RMK AO2 SLP095 T02390200

More Conditions Fewer Conditions

10-Day Weather Forecast

Almanac

Astronomy

Aug. 20, 2014 Rise Set
Actual Time 6:44 AM CDT 8:11 PM CDT
Civil Twilight 6:16 AM CDT 8:39 PM CDT
Nautical Twilight 5:42 AM CDT 9:12 PM CDT
Astronomical Twilight 5:07 AM CDT 9:47 PM CDT
Moon 2:26 AM CDT 4:56 PM CDT
Length of Visible Light 14h 23m
Length of Day
13h 27m
Tomorrow will be 2m 15s shorter.
Waning Crescent, 23% of the Moon is Illuminated
Today
Waning Crescent
Aug 25
New
Sep 2
First Quarter
Sep 8
Full
Sep 15
Last Quarter

Today's Extremes

State Highs State Lows

Community

WunderPhotos

Upload Photos

1,745,600 photos uploaded!

Nearby

Snow Depth

Station Depth Elevation
No new snow has been reported.

Earthquake Activity

City Distance Mag. Time & Date
Medford, Oklahoma 128 miles 2.5 7:09 AM CDT
2014-08-15
Perry, Oklahoma 139 miles 2.7 6:20 PM CDT
2014-08-14
Perry, Oklahoma 139 miles 2.8 2:04 PM CDT
2014-08-14
Medford, Oklahoma 137 miles 3.2 10:44 AM CDT
2014-08-13
Minimum magnitude displayed is 2.5.

Coastal Water Temperatures

Place Temperature
No Stations Reporting

Nearby Weather Stations